sensor_id;sensor_type;location;lat;lon;timestamp;P1;durP1;ratioP1;P2;durP2;ratioP2
6513;SDS011;3290;47.716;9.070;2023-02-01T00:01:16;6.03;;;3.93;;
6513;SDS011;3290;47.716;9.070;2023-02-01T00:03:42;6.23;;;4.03;;
6513;SDS011;3290;47.716;9.070;2023-02-01T00:06:07;8.37;;;4.17;;
6513;SDS011;3290;47.716;9.070;2023-02-01T00:08:33;10.90;;;3.73;;
6513;SDS011;3290;47.716;9.070;2023-02-01T00:11:03;9.47;;;3.87;;
6513;SDS011;3290;47.716;9.070;2023-02-01T00:13:38;7.03;;;4.10;;
6513;SDS011;3290;47.716;9.070;2023-02-01T00:16:12;6.87;;;4.03;;
6513;SDS011;3290;47.716;9.070;2023-02-01T00:18:42;8.43;;;3.83;;
6513;SDS011;3290;47.716;9.070;2023-02-01T00:21:12;6.57;;;4.03;;
6513;SDS011;3290;47.716;9.070;2023-02-01T00:23:38;8.77;;;3.83;;
6513;SDS011;3290;47.716;9.070;2023-02-01T00:26:06;6.63;;;4.43;;
6513;SDS011;3290;47.716;9.070;2023-02-01T00:28:36;5.53;;;3.63;;
6513;SDS011;3290;47.716;9.070;2023-02-01T00:31:02;6.80;;;4.13;;
6513;SDS011;3290;47.716;9.070;2023-02-01T00:33:29;8.50;;;4.87;;
6513;SDS011;3290;47.716;9.070;2023-02-01T00:35:59;6.60;;;4.00;;
6513;SDS011;3290;47.716;9.070;2023-02-01T00:38:26;6.40;;;4.37;;
6513;SDS011;3290;47.716;9.070;2023-02-01T00:40:52;8.33;;;4.57;;
6513;SDS011;3290;47.716;9.070;2023-02-01T00:43:18;10.37;;;4.60;;
6513;SDS011;3290;47.716;9.070;2023-02-01T00:45:44;5.90;;;4.50;;
6513;SDS011;3290;47.716;9.070;2023-02-01T00:48:11;8.10;;;3.80;;
6513;SDS011;3290;47.716;9.070;2023-02-01T00:50:40;7.33;;;3.97;;
6513;SDS011;3290;47.716;9.070;2023-02-01T00:53:06;7.23;;;4.20;;
6513;SDS011;3290;47.716;9.070;2023-02-01T00:55:33;6.17;;;4.27;;
6513;SDS011;3290;47.716;9.070;2023-02-01T00:57:59;6.83;;;4.40;;
6513;SDS011;3290;47.716;9.070;2023-02-01T01:00:24;9.10;;;4.23;;
6513;SDS011;3290;47.716;9.070;2023-02-01T01:02:50;9.70;;;5.27;;
6513;SDS011;3290;47.716;9.070;2023-02-01T01:05:15;9.63;;;4.57;;
6513;SDS011;3290;47.716;9.070;2023-02-01T01:07:41;8.60;;;4.53;;
6513;SDS011;3290;47.716;9.070;2023-02-01T01:10:07;9.50;;;4.43;;
6513;SDS011;3290;47.716;9.070;2023-02-01T01:12:32;9.80;;;4.50;;
6513;SDS011;3290;47.716;9.070;2023-02-01T01:14:58;8.47;;;4.13;;
6513;SDS011;3290;47.716;9.070;2023-02-01T01:17:23;8.00;;;4.60;;
6513;SDS011;3290;47.716;9.070;2023-02-01T01:19:48;7.00;;;4.90;;
6513;SDS011;3290;47.716;9.070;2023-02-01T01:22:14;6.27;;;3.70;;
6513;SDS011;3290;47.716;9.070;2023-02-01T01:24:39;9.33;;;4.37;;
6513;SDS011;3290;47.716;9.070;2023-02-01T01:27:04;7.50;;;4.53;;
6513;SDS011;3290;47.716;9.070;2023-02-01T01:29:30;9.03;;;4.00;;
6513;SDS011;3290;47.716;9.070;2023-02-01T01:31:55;9.07;;;4.83;;
6513;SDS011;3290;47.716;9.070;2023-02-01T01:34:21;6.77;;;3.90;;
6513;SDS011;3290;47.716;9.070;2023-02-01T01:36:46;7.70;;;4.10;;
6513;SDS011;3290;47.716;9.070;2023-02-01T01:39:11;8.20;;;4.90;;
6513;SDS011;3290;47.716;9.070;2023-02-01T01:41:36;7.57;;;4.70;;
6513;SDS011;3290;47.716;9.070;2023-02-01T01:44:03;10.23;;;4.80;;
6513;SDS011;3290;47.716;9.070;2023-02-01T01:46:32;8.00;;;4.47;;
6513;SDS011;3290;47.716;9.070;2023-02-01T01:49:10;9.93;;;5.30;;
6513;SDS011;3290;47.716;9.070;2023-02-01T01:51:47;7.63;;;4.43;;
6513;SDS011;3290;47.716;9.070;2023-02-01T01:54:17;7.50;;;4.33;;
6513;SDS011;3290;47.716;9.070;2023-02-01T01:56:46;16.60;;;6.73;;
6513;SDS011;3290;47.716;9.070;2023-02-01T01:59:16;8.00;;;4.53;;
6513;SDS011;3290;47.716;9.070;2023-02-01T02:01:42;6.97;;;4.83;;
6513;SDS011;3290;47.716;9.070;2023-02-01T02:04:08;8.60;;;4.83;;
6513;SDS011;3290;47.716;9.070;2023-02-01T02:09:10;8.20;;;4.80;;
6513;SDS011;3290;47.716;9.070;2023-02-01T02:11:36;12.33;;;4.23;;
6513;SDS011;3290;47.716;9.070;2023-02-01T02:14:01;6.27;;;4.03;;
6513;SDS011;3290;47.716;9.070;2023-02-01T02:16:40;6.57;;;4.17;;
6513;SDS011;3290;47.716;9.070;2023-02-01T02:25:11;6.70;;;4.20;;
6513;SDS011;3290;47.716;9.070;2023-02-01T02:39:04;7.83;;;5.00;;
6513;SDS011;3290;47.716;9.070;2023-02-01T02:47:41;6.53;;;4.17;;
6513;SDS011;3290;47.716;9.070;2023-02-01T02:53:21;10.17;;;5.70;;
6513;SDS011;3290;47.716;9.070;2023-02-01T02:56:08;9.87;;;5.23;;
6513;SDS011;3290;47.716;9.070;2023-02-01T02:58:54;10.93;;;6.20;;
6513;SDS011;3290;47.716;9.070;2023-02-01T03:01:39;8.27;;;5.27;;
6513;SDS011;3290;47.716;9.070;2023-02-01T03:04:23;9.70;;;5.00;;
6513;SDS011;3290;47.716;9.070;2023-02-01T03:06:51;9.10;;;5.63;;
6513;SDS011;3290;47.716;9.070;2023-02-01T03:09:27;11.53;;;6.00;;
6513;SDS011;3290;47.716;9.070;2023-02-01T03:11:59;14.60;;;7.17;;
6513;SDS011;3290;47.716;9.070;2023-02-01T03:14:49;8.47;;;5.37;;
6513;SDS011;3290;47.716;9.070;2023-02-01T03:17:21;13.57;;;6.30;;
6513;SDS011;3290;47.716;9.070;2023-02-01T03:19:53;12.57;;;5.00;;
6513;SDS011;3290;47.716;9.070;2023-02-01T03:22:24;12.27;;;5.73;;
6513;SDS011;3290;47.716;9.070;2023-02-01T03:24:58;14.80;;;6.17;;
6513;SDS011;3290;47.716;9.070;2023-02-01T03:27:29;12.17;;;5.80;;
6513;SDS011;3290;47.716;9.070;2023-02-01T03:32:43;12.30;;;5.60;;
6513;SDS011;3290;47.716;9.070;2023-02-01T03:38:01;9.97;;;5.83;;
6513;SDS011;3290;47.716;9.070;2023-02-01T03:40:36;8.97;;;5.50;;
6513;SDS011;3290;47.716;9.070;2023-02-01T03:43:02;9.93;;;5.90;;
6513;SDS011;3290;47.716;9.070;2023-02-01T03:45:39;9.00;;;5.73;;
6513;SDS011;3290;47.716;9.070;2023-02-01T03:48:09;9.03;;;5.33;;
6513;SDS011;3290;47.716;9.070;2023-02-01T03:50:38;11.53;;;7.03;;
6513;SDS011;3290;47.716;9.070;2023-02-01T03:53:09;10.87;;;5.77;;
6513;SDS011;3290;47.716;9.070;2023-02-01T03:55:39;10.60;;;5.93;;
6513;SDS011;3290;47.716;9.070;2023-02-01T03:58:11;19.10;;;6.20;;
6513;SDS011;3290;47.716;9.070;2023-02-01T04:00:38;16.97;;;5.50;;
6513;SDS011;3290;47.716;9.070;2023-02-01T04:03:05;13.63;;;7.27;;
6513;SDS011;3290;47.716;9.070;2023-02-01T04:05:31;10.30;;;6.57;;
6513;SDS011;3290;47.716;9.070;2023-02-01T04:07:57;11.43;;;6.10;;
6513;SDS011;3290;47.716;9.070;2023-02-01T04:10:23;10.37;;;5.70;;
6513;SDS011;3290;47.716;9.070;2023-02-01T04:12:48;9.67;;;6.23;;
6513;SDS011;3290;47.716;9.070;2023-02-01T04:15:14;13.13;;;6.30;;
6513;SDS011;3290;47.716;9.070;2023-02-01T04:17:39;12.50;;;6.20;;
6513;SDS011;3290;47.716;9.070;2023-02-01T04:20:05;12.80;;;6.40;;
6513;SDS011;3290;47.716;9.070;2023-02-01T04:22:31;8.57;;;5.77;;
6513;SDS011;3290;47.716;9.070;2023-02-01T04:24:57;12.80;;;6.37;;
6513;SDS011;3290;47.716;9.070;2023-02-01T04:27:22;16.93;;;6.40;;
6513;SDS011;3290;47.716;9.070;2023-02-01T04:29:47;8.57;;;5.40;;
6513;SDS011;3290;47.716;9.070;2023-02-01T04:32:14;8.47;;;4.97;;
6513;SDS011;3290;47.716;9.070;2023-02-01T04:34:41;9.00;;;6.03;;
6513;SDS011;3290;47.716;9.070;2023-02-01T04:37:06;19.47;;;7.10;;
6513;SDS011;3290;47.716;9.070;2023-02-01T04:39:32;10.27;;;6.00;;
6513;SDS011;3290;47.716;9.070;2023-02-01T04:41:58;8.30;;;5.97;;
6513;SDS011;3290;47.716;9.070;2023-02-01T04:44:23;15.07;;;6.37;;
6513;SDS011;3290;47.716;9.070;2023-02-01T04:46:48;12.70;;;6.30;;
6513;SDS011;3290;47.716;9.070;2023-02-01T04:49:14;9.87;;;6.47;;
6513;SDS011;3290;47.716;9.070;2023-02-01T04:51:40;9.97;;;6.67;;
6513;SDS011;3290;47.716;9.070;2023-02-01T04:54:06;12.93;;;6.40;;
6513;SDS011;3290;47.716;9.070;2023-02-01T04:56:32;11.50;;;6.40;;
6513;SDS011;3290;47.716;9.070;2023-02-01T04:58:59;11.73;;;6.80;;
6513;SDS011;3290;47.716;9.070;2023-02-01T05:01:27;12.73;;;6.60;;
6513;SDS011;3290;47.716;9.070;2023-02-01T05:03:53;11.47;;;6.10;;
6513;SDS011;3290;47.716;9.070;2023-02-01T05:06:18;9.50;;;6.43;;
6513;SDS011;3290;47.716;9.070;2023-02-01T05:08:44;12.30;;;6.10;;
6513;SDS011;3290;47.716;9.070;2023-02-01T05:11:09;12.53;;;6.80;;
6513;SDS011;3290;47.716;9.070;2023-02-01T05:13:54;13.20;;;7.30;;
6513;SDS011;3290;47.716;9.070;2023-02-01T05:16:20;12.30;;;7.00;;
6513;SDS011;3290;47.716;9.070;2023-02-01T05:18:45;13.90;;;6.83;;
6513;SDS011;3290;47.716;9.070;2023-02-01T05:21:11;13.63;;;8.13;;
6513;SDS011;3290;47.716;9.070;2023-02-01T05:23:36;10.43;;;6.57;;
6513;SDS011;3290;47.716;9.070;2023-02-01T05:26:22;11.70;;;7.20;;
6513;SDS011;3290;47.716;9.070;2023-02-01T05:28:47;16.43;;;6.80;;
6513;SDS011;3290;47.716;9.070;2023-02-01T05:31:13;12.00;;;7.93;;
6513;SDS011;3290;47.716;9.070;2023-02-01T05:33:38;12.57;;;7.67;;
6513;SDS011;3290;47.716;9.070;2023-02-01T05:36:03;12.23;;;7.43;;
6513;SDS011;3290;47.716;9.070;2023-02-01T05:38:29;12.30;;;7.23;;
6513;SDS011;3290;47.716;9.070;2023-02-01T05:40:57;9.20;;;5.83;;
6513;SDS011;3290;47.716;9.070;2023-02-01T05:43:22;11.63;;;8.00;;
6513;SDS011;3290;47.716;9.070;2023-02-01T05:45:48;11.23;;;6.77;;
6513;SDS011;3290;47.716;9.070;2023-02-01T05:48:13;9.60;;;5.80;;
6513;SDS011;3290;47.716;9.070;2023-02-01T05:50:39;10.83;;;7.20;;
6513;SDS011;3290;47.716;9.070;2023-02-01T05:53:04;12.33;;;6.97;;
6513;SDS011;3290;47.716;9.070;2023-02-01T05:55:30;18.20;;;7.50;;
6513;SDS011;3290;47.716;9.070;2023-02-01T05:57:56;15.10;;;7.30;;
6513;SDS011;3290;47.716;9.070;2023-02-01T06:00:22;10.20;;;6.53;;
6513;SDS011;3290;47.716;9.070;2023-02-01T06:02:47;15.13;;;6.80;;
6513;SDS011;3290;47.716;9.070;2023-02-01T06:05:13;10.03;;;6.97;;
6513;SDS011;3290;47.716;9.070;2023-02-01T06:07:38;21.33;;;7.60;;
6513;SDS011;3290;47.716;9.070;2023-02-01T06:10:04;10.33;;;7.10;;
6513;SDS011;3290;47.716;9.070;2023-02-01T06:12:29;10.60;;;6.97;;
6513;SDS011;3290;47.716;9.070;2023-02-01T06:14:55;12.20;;;7.43;;
6513;SDS011;3290;47.716;9.070;2023-02-01T06:17:20;8.63;;;5.67;;
6513;SDS011;3290;47.716;9.070;2023-02-01T06:19:46;12.43;;;7.10;;
6513;SDS011;3290;47.716;9.070;2023-02-01T06:22:13;10.07;;;6.50;;
6513;SDS011;3290;47.716;9.070;2023-02-01T06:24:39;14.70;;;6.37;;
6513;SDS011;3290;47.716;9.070;2023-02-01T06:27:05;13.50;;;6.87;;
6513;SDS011;3290;47.716;9.070;2023-02-01T06:29:31;9.40;;;6.70;;
6513;SDS011;3290;47.716;9.070;2023-02-01T06:31:57;17.30;;;7.50;;
6513;SDS011;3290;47.716;9.070;2023-02-01T06:34:23;10.87;;;6.93;;
6513;SDS011;3290;47.716;9.070;2023-02-01T06:36:48;10.43;;;6.67;;
6513;SDS011;3290;47.716;9.070;2023-02-01T06:39:14;15.50;;;6.67;;
6513;SDS011;3290;47.716;9.070;2023-02-01T06:41:41;13.00;;;7.30;;
6513;SDS011;3290;47.716;9.070;2023-02-01T06:44:15;10.43;;;6.53;;
6513;SDS011;3290;47.716;9.070;2023-02-01T06:46:41;10.47;;;6.67;;
6513;SDS011;3290;47.716;9.070;2023-02-01T06:49:07;11.17;;;6.47;;
6513;SDS011;3290;47.716;9.070;2023-02-01T06:51:33;10.70;;;6.97;;
6513;SDS011;3290;47.716;9.070;2023-02-01T06:53:58;21.33;;;10.80;;
6513;SDS011;3290;47.716;9.070;2023-02-01T06:56:24;10.43;;;6.50;;
6513;SDS011;3290;47.716;9.070;2023-02-01T06:58:50;10.57;;;6.73;;
6513;SDS011;3290;47.716;9.070;2023-02-01T07:01:16;11.13;;;6.90;;
6513;SDS011;3290;47.716;9.070;2023-02-01T07:03:41;11.47;;;6.77;;
6513;SDS011;3290;47.716;9.070;2023-02-01T07:06:07;14.63;;;7.50;;
6513;SDS011;3290;47.716;9.070;2023-02-01T07:08:35;16.50;;;8.00;;
6513;SDS011;3290;47.716;9.070;2023-02-01T07:11:05;16.00;;;8.20;;
6513;SDS011;3290;47.716;9.070;2023-02-01T07:13:32;19.87;;;9.33;;
6513;SDS011;3290;47.716;9.070;2023-02-01T07:15:58;15.77;;;8.30;;
6513;SDS011;3290;47.716;9.070;2023-02-01T07:18:25;21.17;;;12.00;;
6513;SDS011;3290;47.716;9.070;2023-02-01T07:20:51;15.27;;;9.10;;
6513;SDS011;3290;47.716;9.070;2023-02-01T07:23:17;18.73;;;9.17;;
6513;SDS011;3290;47.716;9.070;2023-02-01T07:25:42;13.40;;;7.20;;
6513;SDS011;3290;47.716;9.070;2023-02-01T07:28:08;8.00;;;5.33;;
6513;SDS011;3290;47.716;9.070;2023-02-01T07:30:33;11.20;;;6.63;;
6513;SDS011;3290;47.716;9.070;2023-02-01T07:32:58;9.33;;;5.63;;
6513;SDS011;3290;47.716;9.070;2023-02-01T07:35:26;11.50;;;6.20;;
6513;SDS011;3290;47.716;9.070;2023-02-01T07:37:52;9.67;;;6.30;;
6513;SDS011;3290;47.716;9.070;2023-02-01T07:40:17;12.70;;;6.10;;
6513;SDS011;3290;47.716;9.070;2023-02-01T07:42:43;15.30;;;7.00;;
6513;SDS011;3290;47.716;9.070;2023-02-01T07:45:09;8.80;;;5.40;;
6513;SDS011;3290;47.716;9.070;2023-02-01T07:47:34;11.80;;;6.17;;
6513;SDS011;3290;47.716;9.070;2023-02-01T07:50:00;11.30;;;6.60;;
6513;SDS011;3290;47.716;9.070;2023-02-01T07:52:27;9.30;;;6.43;;
6513;SDS011;3290;47.716;9.070;2023-02-01T07:54:53;6.60;;;4.90;;
6513;SDS011;3290;47.716;9.070;2023-02-01T07:57:19;11.07;;;6.17;;
6513;SDS011;3290;47.716;9.070;2023-02-01T08:50:21;17.73;;;9.97;;
6513;SDS011;3290;47.716;9.070;2023-02-01T08:52:47;15.07;;;9.30;;
6513;SDS011;3290;47.716;9.070;2023-02-01T08:55:13;15.07;;;9.07;;
6513;SDS011;3290;47.716;9.070;2023-02-01T08:57:39;15.30;;;8.93;;
6513;SDS011;3290;47.716;9.070;2023-02-01T09:00:06;15.37;;;7.80;;
6513;SDS011;3290;47.716;9.070;2023-02-01T09:02:33;13.10;;;8.37;;
6513;SDS011;3290;47.716;9.070;2023-02-01T09:04:58;13.83;;;8.33;;
6513;SDS011;3290;47.716;9.070;2023-02-01T09:07:24;13.30;;;7.60;;
6513;SDS011;3290;47.716;9.070;2023-02-01T09:09:49;13.03;;;7.90;;
6513;SDS011;3290;47.716;9.070;2023-02-01T09:12:15;13.23;;;7.40;;
6513;SDS011;3290;47.716;9.070;2023-02-01T09:14:40;15.33;;;8.30;;
6513;SDS011;3290;47.716;9.070;2023-02-01T09:17:05;14.23;;;8.20;;
6513;SDS011;3290;47.716;9.070;2023-02-01T09:19:31;15.80;;;9.20;;
6513;SDS011;3290;47.716;9.070;2023-02-01T09:21:57;14.80;;;8.30;;
6513;SDS011;3290;47.716;9.070;2023-02-01T09:24:23;14.97;;;8.83;;
6513;SDS011;3290;47.716;9.070;2023-02-01T09:26:48;16.30;;;9.43;;
6513;SDS011;3290;47.716;9.070;2023-02-01T09:29:14;18.47;;;9.13;;
6513;SDS011;3290;47.716;9.070;2023-02-01T09:31:40;12.60;;;6.70;;
6513;SDS011;3290;47.716;9.070;2023-02-01T09:34:06;16.03;;;8.83;;
6513;SDS011;3290;47.716;9.070;2023-02-01T09:36:32;19.90;;;9.10;;
6513;SDS011;3290;47.716;9.070;2023-02-01T09:38:58;15.03;;;9.27;;
6513;SDS011;3290;47.716;9.070;2023-02-01T09:44:24;16.57;;;8.87;;
6513;SDS011;3290;47.716;9.070;2023-02-01T09:47:01;12.57;;;7.27;;
6513;SDS011;3290;47.716;9.070;2023-02-01T09:49:29;12.70;;;7.30;;
6513;SDS011;3290;47.716;9.070;2023-02-01T09:51:56;15.13;;;7.53;;
6513;SDS011;3290;47.716;9.070;2023-02-01T09:54:25;10.53;;;6.57;;
6513;SDS011;3290;47.716;9.070;2023-02-01T09:59:32;13.30;;;8.00;;
6513;SDS011;3290;47.716;9.070;2023-02-01T10:02:03;17.23;;;8.83;;
6513;SDS011;3290;47.716;9.070;2023-02-01T10:04:35;13.63;;;6.57;;
6513;SDS011;3290;47.716;9.070;2023-02-01T10:15:05;8.17;;;5.23;;
6513;SDS011;3290;47.716;9.070;2023-02-01T10:23:49;8.63;;;5.30;;
6513;SDS011;3290;47.716;9.070;2023-02-01T10:28:51;11.90;;;5.60;;
6513;SDS011;3290;47.716;9.070;2023-02-01T10:31:24;10.90;;;7.00;;
6513;SDS011;3290;47.716;9.070;2023-02-01T10:34:01;9.10;;;5.30;;
6513;SDS011;3290;47.716;9.070;2023-02-01T10:36:41;8.50;;;5.57;;
6513;SDS011;3290;47.716;9.070;2023-02-01T10:39:12;9.00;;;5.23;;
6513;SDS011;3290;47.716;9.070;2023-02-01T10:41:40;11.63;;;6.07;;
6513;SDS011;3290;47.716;9.070;2023-02-01T10:44:10;7.23;;;4.40;;
6513;SDS011;3290;47.716;9.070;2023-02-01T10:46:39;10.63;;;5.00;;
6513;SDS011;3290;47.716;9.070;2023-02-01T10:49:04;7.57;;;4.40;;
6513;SDS011;3290;47.716;9.070;2023-02-01T10:51:42;6.80;;;4.73;;
6513;SDS011;3290;47.716;9.070;2023-02-01T10:54:19;8.07;;;4.70;;
6513;SDS011;3290;47.716;9.070;2023-02-01T10:56:46;9.40;;;4.97;;
6513;SDS011;3290;47.716;9.070;2023-02-01T10:59:16;10.20;;;5.03;;
6513;SDS011;3290;47.716;9.070;2023-02-01T11:01:44;9.53;;;4.03;;
6513;SDS011;3290;47.716;9.070;2023-02-01T11:04:16;6.57;;;4.47;;
6513;SDS011;3290;47.716;9.070;2023-02-01T11:06:45;6.33;;;4.10;;
6513;SDS011;3290;47.716;9.070;2023-02-01T11:09:21;10.00;;;4.83;;
6513;SDS011;3290;47.716;9.070;2023-02-01T11:14:17;7.43;;;4.60;;
6513;SDS011;3290;47.716;9.070;2023-02-01T11:19:46;8.33;;;3.97;;
6513;SDS011;3290;47.716;9.070;2023-02-01T11:22:20;14.70;;;4.70;;
6513;SDS011;3290;47.716;9.070;2023-02-01T11:24:46;5.60;;;4.40;;
6513;SDS011;3290;47.716;9.070;2023-02-01T11:27:16;4.73;;;3.93;;
6513;SDS011;3290;47.716;9.070;2023-02-01T11:29:46;3.67;;;2.90;;
6513;SDS011;3290;47.716;9.070;2023-02-01T11:32:16;7.10;;;3.47;;
6513;SDS011;3290;47.716;9.070;2023-02-01T11:37:34;3.03;;;2.53;;
6513;SDS011;3290;47.716;9.070;2023-02-01T11:40:23;8.47;;;2.93;;
6513;SDS011;3290;47.716;9.070;2023-02-01T11:42:57;3.87;;;2.73;;
6513;SDS011;3290;47.716;9.070;2023-02-01T11:45:38;3.47;;;2.33;;
6513;SDS011;3290;47.716;9.070;2023-02-01T11:48:07;5.13;;;2.30;;
6513;SDS011;3290;47.716;9.070;2023-02-01T11:50:45;7.57;;;2.80;;
6513;SDS011;3290;47.716;9.070;2023-02-01T11:54:08;6.97;;;3.00;;
6513;SDS011;3290;47.716;9.070;2023-02-01T12:01:23;9.17;;;4.13;;
6513;SDS011;3290;47.716;9.070;2023-02-01T12:04:28;9.70;;;4.13;;
6513;SDS011;3290;47.716;9.070;2023-02-01T12:07:03;10.87;;;3.80;;
6513;SDS011;3290;47.716;9.070;2023-02-01T12:12:36;4.20;;;3.60;;
6513;SDS011;3290;47.716;9.070;2023-02-01T12:20:24;6.40;;;4.00;;
6513;SDS011;3290;47.716;9.070;2023-02-01T12:28:44;7.13;;;4.10;;
6513;SDS011;3290;47.716;9.070;2023-02-01T12:52:43;5.10;;;2.90;;
6513;SDS011;3290;47.716;9.070;2023-02-01T12:55:17;7.10;;;3.87;;
6513;SDS011;3290;47.716;9.070;2023-02-01T12:58:01;3.57;;;2.70;;
6513;SDS011;3290;47.716;9.070;2023-02-01T13:00:41;5.83;;;3.03;;
6513;SDS011;3290;47.716;9.070;2023-02-01T13:03:49;14.93;;;2.47;;
6513;SDS011;3290;47.716;9.070;2023-02-01T13:06:19;13.63;;;3.77;;
6513;SDS011;3290;47.716;9.070;2023-02-01T13:08:51;13.40;;;3.00;;
6513;SDS011;3290;47.716;9.070;2023-02-01T13:16:35;7.00;;;2.10;;
6513;SDS011;3290;47.716;9.070;2023-02-01T13:19:16;8.00;;;2.20;;
6513;SDS011;3290;47.716;9.070;2023-02-01T13:21:48;2.53;;;1.63;;
6513;SDS011;3290;47.716;9.070;2023-02-01T13:25:01;6.00;;;2.03;;
6513;SDS011;3290;47.716;9.070;2023-02-01T13:27:19;9.73;;;1.90;;
6513;SDS011;3290;47.716;9.070;2023-02-01T13:29:46;2.83;;;2.00;;
6513;SDS011;3290;47.716;9.070;2023-02-01T13:40:36;4.90;;;2.03;;
6513;SDS011;3290;47.716;9.070;2023-02-01T13:43:22;9.97;;;2.10;;
6513;SDS011;3290;47.716;9.070;2023-02-01T13:45:53;16.00;;;2.90;;
6513;SDS011;3290;47.716;9.070;2023-02-01T13:49:12;10.27;;;4.20;;
6513;SDS011;3290;47.716;9.070;2023-02-01T13:53:56;9.43;;;2.40;;
6513;SDS011;3290;47.716;9.070;2023-02-01T13:56:22;12.53;;;2.97;;
6513;SDS011;3290;47.716;9.070;2023-02-01T13:58:49;8.80;;;2.87;;
6513;SDS011;3290;47.716;9.070;2023-02-01T14:03:56;4.80;;;2.17;;
6513;SDS011;3290;47.716;9.070;2023-02-01T14:09:52;10.90;;;3.37;;
6513;SDS011;3290;47.716;9.070;2023-02-01T14:11:57;4.87;;;2.10;;
6513;SDS011;3290;47.716;9.070;2023-02-01T14:21:49;9.03;;;2.03;;
6513;SDS011;3290;47.716;9.070;2023-02-01T14:24:24;5.00;;;2.10;;
6513;SDS011;3290;47.716;9.070;2023-02-01T14:26:52;5.53;;;2.47;;
6513;SDS011;3290;47.716;9.070;2023-02-01T14:29:25;13.43;;;2.33;;
6513;SDS011;3290;47.716;9.070;2023-02-01T14:34:39;15.50;;;2.10;;
6513;SDS011;3290;47.716;9.070;2023-02-01T14:44:43;10.33;;;2.40;;
6513;SDS011;3290;47.716;9.070;2023-02-01T14:49:53;18.63;;;3.37;;
6513;SDS011;3290;47.716;9.070;2023-02-01T14:52:20;15.00;;;3.40;;
6513;SDS011;3290;47.716;9.070;2023-02-01T14:54:54;11.53;;;3.47;;
6513;SDS011;3290;47.716;9.070;2023-02-01T14:57:24;8.03;;;2.30;;
6513;SDS011;3290;47.716;9.070;2023-02-01T15:00:06;12.30;;;3.00;;
6513;SDS011;3290;47.716;9.070;2023-02-01T15:02:39;5.60;;;2.63;;
6513;SDS011;3290;47.716;9.070;2023-02-01T15:05:16;17.03;;;2.80;;
6513;SDS011;3290;47.716;9.070;2023-02-01T15:07:48;10.47;;;2.17;;
6513;SDS011;3290;47.716;9.070;2023-02-01T15:10:13;5.53;;;2.40;;
6513;SDS011;3290;47.716;9.070;2023-02-01T15:12:40;10.13;;;2.80;;
6513;SDS011;3290;47.716;9.070;2023-02-01T15:17:34;4.83;;;2.13;;
6513;SDS011;3290;47.716;9.070;2023-02-01T15:20:01;4.30;;;1.83;;
6513;SDS011;3290;47.716;9.070;2023-02-01T15:22:29;11.07;;;3.33;;
6513;SDS011;3290;47.716;9.070;2023-02-01T15:24:57;9.03;;;2.33;;
6513;SDS011;3290;47.716;9.070;2023-02-01T15:27:26;6.33;;;2.33;;
6513;SDS011;3290;47.716;9.070;2023-02-01T15:29:53;8.03;;;2.73;;
6513;SDS011;3290;47.716;9.070;2023-02-01T15:43:20;7.90;;;2.20;;
6513;SDS011;3290;47.716;9.070;2023-02-01T15:45:47;6.73;;;2.73;;
6513;SDS011;3290;47.716;9.070;2023-02-01T15:48:16;12.60;;;2.77;;
6513;SDS011;3290;47.716;9.070;2023-02-01T15:50:46;15.87;;;2.50;;
6513;SDS011;3290;47.716;9.070;2023-02-01T15:53:14;4.97;;;3.17;;
6513;SDS011;3290;47.716;9.070;2023-02-01T15:55:45;12.63;;;2.63;;
6513;SDS011;3290;47.716;9.070;2023-02-01T15:58:19;4.37;;;1.90;;
6513;SDS011;3290;47.716;9.070;2023-02-01T16:00:47;12.90;;;3.10;;
6513;SDS011;3290;47.716;9.070;2023-02-01T16:03:36;8.33;;;2.43;;
6513;SDS011;3290;47.716;9.070;2023-02-01T16:06:03;8.87;;;2.47;;
6513;SDS011;3290;47.716;9.070;2023-02-01T16:08:31;8.30;;;3.17;;
6513;SDS011;3290;47.716;9.070;2023-02-01T16:13:33;7.40;;;2.30;;
6513;SDS011;3290;47.716;9.070;2023-02-01T16:15:59;8.37;;;2.47;;
6513;SDS011;3290;47.716;9.070;2023-02-01T16:18:25;7.47;;;2.60;;
6513;SDS011;3290;47.716;9.070;2023-02-01T16:20:50;14.83;;;3.30;;
6513;SDS011;3290;47.716;9.070;2023-02-01T16:23:15;5.57;;;1.80;;
6513;SDS011;3290;47.716;9.070;2023-02-01T16:25:41;16.33;;;2.87;;
6513;SDS011;3290;47.716;9.070;2023-02-01T16:28:07;8.67;;;3.10;;
6513;SDS011;3290;47.716;9.070;2023-02-01T16:30:33;11.10;;;2.43;;
6513;SDS011;3290;47.716;9.070;2023-02-01T16:32:59;8.57;;;2.30;;
6513;SDS011;3290;47.716;9.070;2023-02-01T16:35:31;13.23;;;2.40;;
6513;SDS011;3290;47.716;9.070;2023-02-01T16:38:01;4.90;;;2.13;;
6513;SDS011;3290;47.716;9.070;2023-02-01T16:40:37;10.47;;;2.30;;
6513;SDS011;3290;47.716;9.070;2023-02-01T16:43:11;6.40;;;2.60;;
6513;SDS011;3290;47.716;9.070;2023-02-01T16:45:38;11.03;;;2.80;;
6513;SDS011;3290;47.716;9.070;2023-02-01T16:48:05;9.70;;;2.63;;
6513;SDS011;3290;47.716;9.070;2023-02-01T16:50:31;3.03;;;1.97;;
6513;SDS011;3290;47.716;9.070;2023-02-01T16:52:58;6.40;;;2.73;;
6513;SDS011;3290;47.716;9.070;2023-02-01T16:55:23;15.83;;;3.50;;
6513;SDS011;3290;47.716;9.070;2023-02-01T16:57:50;20.13;;;3.40;;
6513;SDS011;3290;47.716;9.070;2023-02-01T17:00:16;11.40;;;2.70;;
6513;SDS011;3290;47.716;9.070;2023-02-01T17:02:42;15.97;;;3.30;;
6513;SDS011;3290;47.716;9.070;2023-02-01T17:05:08;7.90;;;2.17;;
6513;SDS011;3290;47.716;9.070;2023-02-01T17:07:35;11.50;;;2.27;;
6513;SDS011;3290;47.716;9.070;2023-02-01T17:10:03;18.70;;;2.50;;
6513;SDS011;3290;47.716;9.070;2023-02-01T17:12:31;11.00;;;2.27;;
6513;SDS011;3290;47.716;9.070;2023-02-01T17:14:57;13.37;;;2.03;;
6513;SDS011;3290;47.716;9.070;2023-02-01T17:17:32;11.67;;;3.03;;
6513;SDS011;3290;47.716;9.070;2023-02-01T17:20:01;9.00;;;2.67;;
6513;SDS011;3290;47.716;9.070;2023-02-01T17:22:28;12.10;;;2.30;;
6513;SDS011;3290;47.716;9.070;2023-02-01T17:24:53;8.10;;;2.80;;
6513;SDS011;3290;47.716;9.070;2023-02-01T17:27:18;3.43;;;2.23;;
6513;SDS011;3290;47.716;9.070;2023-02-01T17:29:44;6.63;;;2.73;;
6513;SDS011;3290;47.716;9.070;2023-02-01T17:32:22;10.33;;;2.67;;
6513;SDS011;3290;47.716;9.070;2023-02-01T17:34:49;14.27;;;3.00;;
6513;SDS011;3290;47.716;9.070;2023-02-01T17:37:21;11.03;;;2.77;;
6513;SDS011;3290;47.716;9.070;2023-02-01T17:39:49;12.10;;;2.30;;
6513;SDS011;3290;47.716;9.070;2023-02-01T17:42:23;6.70;;;2.50;;
6513;SDS011;3290;47.716;9.070;2023-02-01T17:44:50;11.07;;;2.67;;
6513;SDS011;3290;47.716;9.070;2023-02-01T17:47:19;9.50;;;2.37;;
6513;SDS011;3290;47.716;9.070;2023-02-01T17:49:45;10.40;;;3.43;;
6513;SDS011;3290;47.716;9.070;2023-02-01T17:52:13;8.23;;;2.73;;
6513;SDS011;3290;47.716;9.070;2023-02-01T17:54:42;8.60;;;2.30;;
6513;SDS011;3290;47.716;9.070;2023-02-01T17:57:11;11.23;;;2.73;;
6513;SDS011;3290;47.716;9.070;2023-02-01T17:59:37;17.23;;;2.93;;
6513;SDS011;3290;47.716;9.070;2023-02-01T18:02:02;12.90;;;2.90;;
6513;SDS011;3290;47.716;9.070;2023-02-01T18:04:28;14.60;;;2.33;;
6513;SDS011;3290;47.716;9.070;2023-02-01T18:06:53;17.57;;;2.90;;
6513;SDS011;3290;47.716;9.070;2023-02-01T18:09:19;12.67;;;3.10;;
6513;SDS011;3290;47.716;9.070;2023-02-01T18:11:44;8.00;;;2.07;;
6513;SDS011;3290;47.716;9.070;2023-02-01T18:14:12;3.97;;;2.17;;
6513;SDS011;3290;47.716;9.070;2023-02-01T18:16:38;11.53;;;3.00;;
6513;SDS011;3290;47.716;9.070;2023-02-01T18:19:03;8.43;;;2.40;;
6513;SDS011;3290;47.716;9.070;2023-02-01T18:21:37;18.80;;;3.47;;
6513;SDS011;3290;47.716;9.070;2023-02-01T18:24:05;6.57;;;2.93;;
6513;SDS011;3290;47.716;9.070;2023-02-01T18:26:31;9.43;;;2.70;;
6513;SDS011;3290;47.716;9.070;2023-02-01T18:28:56;24.57;;;5.10;;
6513;SDS011;3290;47.716;9.070;2023-02-01T18:31:23;11.63;;;2.67;;
6513;SDS011;3290;47.716;9.070;2023-02-01T18:33:51;17.63;;;3.00;;
6513;SDS011;3290;47.716;9.070;2023-02-01T18:36:17;11.63;;;2.73;;
6513;SDS011;3290;47.716;9.070;2023-02-01T18:38:43;10.43;;;3.30;;
6513;SDS011;3290;47.716;9.070;2023-02-01T18:41:12;20.20;;;2.63;;
6513;SDS011;3290;47.716;9.070;2023-02-01T18:43:40;12.50;;;2.60;;
6513;SDS011;3290;47.716;9.070;2023-02-01T18:46:06;7.80;;;2.63;;
6513;SDS011;3290;47.716;9.070;2023-02-01T18:48:33;9.03;;;3.13;;
6513;SDS011;3290;47.716;9.070;2023-02-01T18:50:58;5.80;;;1.93;;
6513;SDS011;3290;47.716;9.070;2023-02-01T18:53:23;9.43;;;2.00;;